createdAt,value
2018-02-07T11:56:02.966Z,8.80
2018-02-07T11:57:05.597Z,9.80
2018-02-07T12:00:13.062Z,12.20
2018-02-07T12:02:42.602Z,9.40
2018-02-07T12:03:42.593Z,9.70
2018-02-07T12:05:36.037Z,10.20
2018-02-07T12:06:35.977Z,9.30
2018-02-07T12:08:29.358Z,10.10
2018-02-07T12:09:29.366Z,11.80
2018-02-07T12:11:22.311Z,15.30
2018-02-07T12:12:22.247Z,15.10
2018-02-07T12:14:15.416Z,17.60
2018-02-07T12:15:15.404Z,19.40
2018-02-07T12:17:08.847Z,18.10
2018-02-07T12:18:08.868Z,18.20
2018-02-07T12:20:02.154Z,20.80
2018-02-07T12:21:02.155Z,18.50
2018-02-07T12:22:55.572Z,20.30
2018-02-07T12:23:55.526Z,20.40
2018-02-07T12:25:48.400Z,19.50
2018-02-07T12:26:48.386Z,20.90
2018-02-07T12:28:41.320Z,18.20
2018-02-07T12:29:41.261Z,20.40
2018-02-07T12:31:34.638Z,20.00
2018-02-07T12:32:34.631Z,20.70
2018-02-07T12:34:27.566Z,18.30
2018-02-07T12:35:27.501Z,17.70
2018-02-07T12:37:20.386Z,16.10
2018-02-07T12:38:20.392Z,15.00
2018-02-07T12:41:14.054Z,15.70
2018-02-07T12:43:06.941Z,14.60
2018-02-07T12:44:06.944Z,14.10
2018-02-07T12:46:00.343Z,13.40
2018-02-07T12:47:00.337Z,14.20
2018-02-07T12:48:53.680Z,13.10
2018-02-07T12:49:53.695Z,15.10
2018-02-07T12:51:46.843Z,12.20
2018-02-07T12:52:46.789Z,12.60
2018-02-07T12:54:39.953Z,12.30
2018-02-07T12:55:39.948Z,12.30
2018-02-07T12:57:33.666Z,11.60
2018-02-07T12:58:33.637Z,12.40
2018-02-07T13:00:26.494Z,12.60
2018-02-07T13:01:26.538Z,11.50
2018-02-07T13:03:19.917Z,10.90
2018-02-07T13:04:19.855Z,12.20
2018-02-07T13:06:12.798Z,12.20
2018-02-07T13:07:12.824Z,13.20
2018-02-07T13:09:06.742Z,11.20
2018-02-07T13:10:06.671Z,13.90
2018-02-07T13:12:00.039Z,11.30
2018-02-07T13:13:00.037Z,13.50
2018-02-07T13:14:54.488Z,11.00
2018-02-07T13:17:47.313Z,10.50
2018-02-07T13:18:47.284Z,11.30
2018-02-07T13:20:40.202Z,11.40
2018-02-07T13:21:40.152Z,10.70
2018-02-07T13:23:33.033Z,11.80
2018-02-07T13:24:33.021Z,10.40
2018-02-07T13:26:27.064Z,11.60
2018-02-07T13:27:26.866Z,10.50
2018-02-07T13:29:19.746Z,11.50
2018-02-07T13:30:19.732Z,11.50
2018-02-07T13:32:13.154Z,10.20
2018-02-07T13:33:13.105Z,11.60
2018-02-07T13:35:06.269Z,11.10
2018-02-07T13:36:06.261Z,10.60
2018-02-07T13:37:59.212Z,12.20
2018-02-07T13:38:59.164Z,10.40
2018-02-07T13:43:45.971Z,10.80
2018-02-07T13:44:46.096Z,13.00
2018-02-07T13:46:38.807Z,9.20
2018-02-07T13:47:38.795Z,10.30
2018-02-07T13:49:31.735Z,12.00
2018-02-07T13:50:31.693Z,10.00
2018-02-07T13:52:24.872Z,11.10
2018-02-07T13:53:24.875Z,11.10
2018-02-07T13:55:18.319Z,9.70
2018-02-07T13:59:04.079Z,9.80
2018-02-07T14:01:57.837Z,9.90
2018-02-07T14:04:51.100Z,11.60
2018-02-07T14:05:51.101Z,10.70
2018-02-07T14:07:44.022Z,10.20
2018-02-07T14:08:34.860Z,11.20
2018-02-07T14:09:34.886Z,9.60
